createdAt,value
2022-10-01T00:01:07.162Z,9.73
2022-10-01T00:03:34.920Z,8.20
2022-10-01T00:06:06.408Z,7.80
2022-10-01T00:08:33.824Z,6.45
2022-10-01T00:11:01.612Z,6.95
2022-10-01T00:13:30.617Z,6.68
2022-10-01T00:15:57.569Z,6.43
2022-10-01T00:18:24.082Z,5.97
2022-10-01T00:20:50.769Z,6.18
2022-10-01T00:23:19.383Z,5.72
2022-10-01T00:25:46.016Z,7.28
2022-10-01T00:28:12.694Z,6.28
2022-10-01T00:30:46.511Z,7.97
2022-10-01T00:33:13.090Z,4.72
2022-10-01T00:35:39.665Z,5.72
2022-10-01T00:38:06.249Z,6.00
2022-10-01T00:40:39.370Z,5.47
2022-10-01T00:43:31.400Z,4.43
2022-10-01T00:46:09.441Z,4.60
2022-10-01T00:49:01.865Z,4.50
2022-10-01T00:51:33.284Z,6.70
2022-10-01T00:54:08.792Z,5.40
2022-10-01T00:56:36.852Z,5.60
2022-10-01T00:59:04.538Z,4.50
2022-10-01T01:01:31.466Z,6.07
2022-10-01T01:03:58.812Z,5.35
2022-10-01T01:06:25.547Z,7.13
2022-10-01T01:08:55.193Z,6.30
2022-10-01T01:11:32.134Z,3.67
2022-10-01T01:14:12.188Z,5.30
2022-10-01T01:17:01.472Z,4.85
2022-10-01T01:19:43.435Z,4.70
2022-10-01T01:22:13.434Z,4.80
2022-10-01T01:24:51.675Z,5.05
2022-10-01T01:27:29.007Z,5.53
2022-10-01T01:30:03.776Z,6.57
2022-10-01T01:32:53.006Z,7.38
2022-10-01T01:35:26.559Z,7.60
2022-10-01T01:37:58.772Z,7.28
2022-10-01T01:40:27.242Z,6.40
2022-10-01T01:42:56.246Z,6.72
2022-10-01T01:45:30.755Z,5.68
2022-10-01T01:48:02.179Z,7.72
2022-10-01T01:50:34.429Z,7.38
2022-10-01T01:53:01.179Z,5.53
2022-10-01T01:55:30.039Z,7.15
2022-10-01T01:57:57.217Z,6.38
2022-10-01T02:00:23.945Z,7.72
2022-10-01T02:02:53.957Z,6.72
2022-10-01T02:05:25.802Z,6.97
2022-10-01T02:08:33.073Z,6.60
2022-10-01T02:11:23.734Z,10.10
2022-10-01T02:14:21.371Z,7.80
2022-10-01T02:17:03.629Z,5.77
2022-10-01T02:19:46.007Z,5.45
2022-10-01T02:22:44.918Z,4.75
2022-10-01T02:25:15.501Z,7.50
2022-10-01T02:27:48.802Z,8.50
2022-10-01T02:30:15.491Z,6.18
2022-10-01T02:32:46.018Z,3.42
2022-10-01T02:35:16.356Z,6.40
2022-10-01T02:37:45.313Z,7.57
2022-10-01T02:40:16.239Z,8.15
2022-10-01T02:42:50.003Z,4.55
2022-10-01T02:45:22.808Z,7.32
2022-10-01T02:47:59.012Z,5.35
2022-10-01T02:50:32.226Z,8.10
2022-10-01T02:53:07.073Z,5.78
2022-10-01T02:55:37.864Z,5.55
2022-10-01T02:58:05.394Z,5.95
2022-10-01T03:00:32.361Z,6.63
2022-10-01T03:02:59.120Z,6.72
2022-10-01T03:05:25.966Z,6.07
2022-10-01T03:07:52.992Z,7.03
2022-10-01T03:10:19.841Z,6.32
2022-10-01T03:12:46.936Z,8.38
2022-10-01T03:15:15.333Z,6.45
2022-10-01T03:17:41.866Z,7.00
2022-10-01T03:20:09.744Z,7.03
2022-10-01T03:22:36.429Z,7.28
2022-10-01T03:25:03.551Z,10.98
2022-10-01T03:27:30.310Z,8.45
2022-10-01T03:29:56.892Z,11.85
2022-10-01T03:32:23.504Z,7.97
2022-10-01T03:34:50.132Z,5.78
2022-10-01T03:37:16.747Z,8.90
2022-10-01T03:39:43.271Z,6.72
2022-10-01T03:42:09.817Z,10.23
2022-10-01T03:44:36.427Z,9.32
2022-10-01T03:47:02.994Z,11.52
2022-10-01T03:49:29.534Z,9.32
2022-10-01T03:51:56.556Z,10.77
2022-10-01T03:54:23.373Z,10.10
2022-10-01T03:56:49.977Z,15.02
2022-10-01T03:59:16.609Z,8.00
2022-10-01T04:01:43.217Z,7.70
2022-10-01T04:04:10.006Z,10.90
2022-10-01T04:06:36.610Z,12.13
2022-10-01T04:09:03.379Z,7.70
2022-10-01T04:11:30.373Z,7.95
2022-10-01T04:13:59.928Z,8.55
2022-10-01T04:16:26.479Z,7.13
2022-10-01T04:18:53.846Z,5.47
2022-10-01T04:21:20.443Z,5.82
2022-10-01T04:23:47.152Z,6.95
2022-10-01T04:26:13.773Z,5.95
2022-10-01T04:28:40.364Z,5.63
2022-10-01T04:31:25.173Z,6.40
2022-10-01T04:33:53.847Z,7.28
2022-10-01T04:36:20.916Z,6.32
2022-10-01T04:38:51.012Z,5.47
2022-10-01T04:41:17.617Z,5.18
2022-10-01T04:43:44.258Z,7.57
2022-10-01T04:46:10.821Z,5.88
2022-10-01T04:48:37.310Z,7.55
2022-10-01T04:51:03.952Z,8.30
2022-10-01T04:53:30.750Z,4.30
2022-10-01T04:55:57.302Z,4.18
2022-10-01T04:58:24.034Z,7.85
2022-10-01T05:00:50.859Z,4.07
2022-10-01T05:03:17.921Z,4.80
2022-10-01T05:05:44.607Z,7.68
2022-10-01T05:08:11.161Z,11.68
2022-10-01T05:10:37.844Z,7.10
2022-10-01T05:13:04.448Z,4.63
2022-10-01T05:15:31.251Z,5.00
2022-10-01T05:17:57.826Z,6.47
2022-10-01T05:20:27.069Z,6.60
2022-10-01T05:22:54.471Z,7.55
2022-10-01T05:25:21.313Z,7.53
2022-10-01T05:27:47.970Z,13.73
2022-10-01T05:30:24.060Z,7.65
2022-10-01T05:32:56.417Z,4.40
2022-10-01T05:35:23.438Z,7.47
2022-10-01T05:37:54.015Z,8.25
2022-10-01T05:40:20.652Z,5.13
2022-10-01T05:42:47.542Z,8.63
2022-10-01T05:45:14.261Z,9.30
2022-10-01T05:47:42.407Z,12.60
2022-10-01T05:50:09.697Z,10.98
2022-10-01T05:52:36.263Z,9.65
2022-10-01T05:55:03.054Z,8.32
2022-10-01T05:57:31.139Z,6.75
2022-10-01T05:59:58.030Z,6.38
2022-10-01T06:02:24.737Z,6.95
2022-10-01T06:04:51.616Z,7.70
2022-10-01T06:07:18.345Z,8.25
2022-10-01T06:09:45.249Z,9.20
2022-10-01T06:12:13.662Z,8.02
2022-10-01T06:14:43.021Z,9.27
2022-10-01T06:17:09.576Z,7.80
2022-10-01T06:19:36.158Z,11.35
2022-10-01T06:22:02.692Z,13.00
2022-10-01T06:24:30.248Z,16.15
2022-10-01T06:26:57.170Z,19.70
2022-10-01T06:29:24.061Z,18.10
2022-10-01T06:31:51.912Z,18.08
2022-10-01T06:34:18.693Z,20.45
2022-10-01T06:36:45.439Z,17.35
2022-10-01T06:39:12.001Z,14.63
2022-10-01T06:41:38.591Z,18.23
2022-10-01T06:44:05.273Z,15.98
2022-10-01T06:46:32.450Z,19.42
2022-10-01T06:48:59.342Z,19.88
2022-10-01T06:51:44.519Z,18.67
2022-10-01T06:54:11.099Z,19.80
2022-10-01T06:56:37.772Z,25.02
2022-10-01T06:59:04.447Z,20.15
2022-10-01T07:01:33.029Z,17.63
2022-10-01T07:03:59.801Z,18.70
2022-10-01T07:06:26.533Z,15.52
2022-10-01T07:08:53.225Z,18.38
2022-10-01T07:11:20.430Z,15.55
2022-10-01T07:13:49.992Z,15.65
2022-10-01T07:16:19.083Z,16.45
2022-10-01T07:18:45.611Z,14.95
2022-10-01T07:21:12.230Z,13.57
2022-10-01T07:23:38.830Z,14.90
2022-10-01T07:26:06.115Z,14.00
2022-10-01T07:28:32.634Z,10.50
2022-10-01T07:31:06.862Z,10.27
2022-10-01T07:33:33.442Z,10.57
2022-10-01T07:36:01.733Z,12.07
2022-10-01T07:38:28.869Z,13.50
2022-10-01T07:40:55.470Z,10.85
2022-10-01T07:43:22.709Z,11.18
2022-10-01T07:45:50.256Z,13.00
2022-10-01T07:48:17.173Z,14.40
2022-10-01T07:50:47.525Z,12.77
2022-10-01T07:53:14.378Z,11.25
2022-10-01T07:55:40.952Z,8.98
2022-10-01T07:58:08.121Z,14.20
2022-10-01T08:00:35.383Z,12.32
2022-10-01T08:03:02.039Z,8.77
2022-10-01T08:05:31.194Z,7.18
2022-10-01T08:08:03.570Z,8.55
2022-10-01T08:10:30.674Z,11.13
2022-10-01T08:13:08.210Z,9.02
2022-10-01T08:15:35.582Z,7.97
2022-10-01T08:18:05.597Z,10.32
2022-10-01T08:20:32.550Z,8.55
2022-10-01T08:23:07.784Z,8.43
2022-10-01T08:25:35.100Z,9.85
2022-10-01T08:28:02.058Z,7.47
2022-10-01T08:30:29.682Z,8.10
2022-10-01T08:32:58.177Z,8.77
2022-10-01T08:35:25.511Z,8.50
2022-10-01T08:37:52.205Z,9.30
2022-10-01T08:40:21.658Z,9.05
2022-10-01T08:42:51.150Z,7.72
2022-10-01T08:45:27.118Z,8.02
2022-10-01T08:48:07.616Z,9.43
2022-10-01T08:50:56.284Z,12.40
2022-10-01T08:53:38.331Z,8.65
2022-10-01T08:56:12.955Z,11.52
2022-10-01T08:58:45.777Z,13.48
2022-10-01T09:01:12.457Z,10.18
2022-10-01T09:03:40.339Z,13.10
2022-10-01T09:06:21.517Z,12.93
2022-10-01T09:09:20.403Z,13.05
2022-10-01T09:12:14.132Z,10.73
2022-10-01T09:15:17.966Z,12.00
2022-10-01T09:17:44.402Z,11.63
2022-10-01T09:20:27.499Z,11.55
2022-10-01T09:23:18.845Z,12.73
2022-10-01T09:25:50.310Z,13.50
2022-10-01T09:28:30.219Z,15.98
2022-10-01T09:30:59.133Z,17.45
2022-10-01T09:33:33.722Z,12.43
2022-10-01T09:36:34.227Z,16.50
2022-10-01T09:39:21.842Z,15.18
2022-10-01T09:41:48.474Z,15.90
2022-10-01T09:44:28.828Z,14.30
2022-10-01T09:46:55.658Z,14.80
2022-10-01T09:49:31.646Z,14.90
2022-10-01T09:52:04.204Z,16.52
2022-10-01T09:54:46.874Z,14.15
2022-10-01T09:57:36.094Z,15.15
2022-10-01T10:00:18.300Z,15.50
2022-10-01T10:02:50.491Z,17.73
2022-10-01T10:05:20.486Z,17.63
2022-10-01T10:07:51.791Z,19.50
2022-10-01T10:10:28.564Z,19.05
2022-10-01T10:13:01.845Z,21.23
2022-10-01T10:15:31.370Z,19.83
2022-10-01T10:18:07.167Z,18.85
2022-10-01T10:20:41.476Z,16.20
2022-10-01T10:23:17.402Z,17.17
2022-10-01T10:25:44.238Z,19.15
2022-10-01T10:28:23.697Z,14.98
2022-10-01T10:30:54.042Z,20.42
2022-10-01T10:33:23.400Z,18.70
2022-10-01T10:36:05.145Z,17.52
2022-10-01T10:38:34.839Z,19.38
2022-10-01T10:41:03.979Z,17.63
2022-10-01T10:43:36.599Z,19.55
2022-10-01T10:46:03.693Z,21.45
2022-10-01T10:48:35.346Z,19.10
2022-10-01T10:51:04.891Z,21.65
2022-10-01T10:53:44.250Z,21.00
2022-10-01T10:56:21.897Z,16.55
2022-10-01T10:58:49.983Z,20.27
2022-10-01T11:01:28.784Z,19.25
2022-10-01T11:03:58.663Z,14.77
2022-10-01T11:06:25.590Z,13.45
2022-10-01T11:09:07.241Z,14.80
2022-10-01T11:11:48.648Z,13.30
2022-10-01T11:14:31.188Z,13.88
2022-10-01T11:17:20.320Z,15.18
2022-10-01T11:20:02.182Z,15.27
2022-10-01T11:22:46.901Z,14.65
2022-10-01T11:25:35.638Z,19.08
2022-10-01T11:28:57.674Z,14.30
2022-10-01T11:31:47.261Z,14.40
2022-10-01T11:34:55.245Z,14.52
2022-10-01T11:40:05.135Z,14.00
2022-10-01T11:42:36.809Z,16.15
2022-10-01T11:45:11.259Z,13.85
2022-10-01T11:48:01.948Z,15.20
2022-10-01T11:50:39.051Z,13.50
2022-10-01T11:53:17.983Z,11.93
2022-10-01T11:56:10.741Z,13.35
2022-10-01T11:58:54.734Z,12.32
2022-10-01T12:01:24.963Z,12.43
2022-10-01T12:03:54.606Z,12.18
2022-10-01T12:06:33.773Z,12.48
2022-10-01T12:09:15.006Z,11.65
2022-10-01T12:11:54.556Z,9.63
2022-10-01T12:14:31.644Z,9.20
2022-10-01T12:17:13.671Z,10.18
2022-10-01T12:19:45.244Z,16.85
2022-10-01T12:22:24.555Z,13.95
2022-10-01T12:24:53.202Z,14.93
2022-10-01T12:30:07.816Z,12.90
2022-10-01T12:33:01.923Z,12.13
2022-10-01T12:35:51.920Z,12.65
2022-10-01T12:38:45.048Z,12.27
2022-10-01T12:41:43.116Z,13.65
2022-10-01T12:47:14.616Z,8.65
2022-10-01T12:49:58.515Z,10.98
2022-10-01T12:52:40.323Z,9.55
2022-10-01T12:55:43.424Z,11.95
2022-10-01T12:58:39.995Z,13.82
2022-10-01T13:01:19.192Z,10.45
2022-10-01T13:06:55.227Z,8.00
2022-10-01T13:09:38.516Z,8.38
2022-10-01T13:12:05.378Z,11.25
2022-10-01T13:14:34.784Z,7.93
2022-10-01T13:17:21.569Z,18.35
2022-10-01T13:19:58.276Z,9.07
2022-10-01T13:22:42.926Z,8.98
2022-10-01T13:25:25.124Z,7.88
2022-10-01T13:27:56.069Z,6.15
2022-10-01T13:30:24.932Z,8.10
2022-10-01T13:32:57.864Z,9.27
2022-10-01T13:35:35.956Z,7.85
2022-10-01T13:40:41.060Z,7.88
2022-10-01T13:43:16.703Z,10.32
2022-10-01T13:45:46.426Z,9.30
2022-10-01T13:48:18.400Z,10.05
2022-10-01T13:51:10.745Z,11.48
2022-10-01T13:53:47.446Z,6.47
2022-10-01T13:56:28.521Z,6.57
2022-10-01T13:58:55.558Z,6.00
2022-10-01T14:01:24.354Z,6.72
2022-10-01T14:03:55.622Z,6.70
2022-10-01T14:06:33.200Z,7.40
2022-10-01T14:09:11.796Z,7.85
2022-10-01T14:12:00.850Z,6.28
2022-10-01T14:14:50.525Z,6.20
2022-10-01T14:17:22.426Z,3.97
2022-10-01T14:19:50.890Z,5.57
2022-10-01T14:25:35.453Z,5.10
2022-10-01T14:28:25.400Z,5.55
2022-10-01T14:31:33.804Z,5.35
2022-10-01T14:34:06.270Z,4.78
2022-10-01T14:36:35.681Z,5.30
2022-10-01T14:39:19.835Z,4.45
2022-10-01T14:41:51.993Z,4.75
2022-10-01T14:44:22.045Z,4.60
2022-10-01T14:46:49.976Z,3.78
2022-10-01T14:49:34.804Z,5.30
2022-10-01T14:52:07.281Z,3.85
2022-10-01T14:54:56.218Z,5.38
2022-10-01T14:57:35.006Z,4.68
2022-10-01T15:00:08.926Z,6.40
2022-10-01T15:02:50.836Z,4.05
2022-10-01T15:05:26.599Z,4.95
2022-10-01T15:07:53.681Z,5.65
2022-10-01T15:10:24.847Z,2.55
2022-10-01T15:12:52.816Z,3.38
2022-10-01T15:15:39.477Z,2.35
2022-10-01T15:18:06.888Z,4.70
2022-10-01T15:20:34.240Z,3.03
2022-10-01T15:23:01.789Z,2.83
2022-10-01T15:25:31.482Z,2.20
2022-10-01T15:27:58.135Z,2.75
2022-10-01T15:30:30.502Z,3.50
2022-10-01T15:32:57.644Z,3.33
2022-10-01T15:35:25.059Z,3.22
2022-10-01T15:37:53.927Z,4.72
2022-10-01T15:40:29.149Z,3.45
2022-10-01T15:43:21.672Z,4.90
2022-10-01T15:46:31.376Z,2.65
2022-10-01T15:49:19.716Z,2.13
2022-10-01T15:52:17.960Z,1.95
2022-10-01T15:54:45.984Z,2.13
2022-10-01T15:57:20.949Z,2.10
2022-10-01T15:59:50.066Z,3.60
2022-10-01T16:02:26.270Z,4.60
2022-10-01T16:04:55.994Z,3.30
2022-10-01T16:07:29.496Z,4.32
2022-10-01T16:09:59.158Z,2.80
2022-10-01T16:12:29.370Z,3.88
2022-10-01T16:15:01.462Z,3.50
2022-10-01T16:17:35.369Z,2.33
2022-10-01T16:20:14.050Z,6.97
2022-10-01T16:22:40.740Z,1.70
2022-10-01T16:25:25.568Z,3.38
2022-10-01T16:27:55.358Z,5.88
2022-10-01T16:30:27.687Z,2.97
2022-10-01T16:32:55.430Z,2.00
2022-10-01T16:35:33.048Z,10.40
2022-10-01T16:38:01.031Z,7.75
2022-10-01T16:40:33.036Z,3.60
2022-10-01T16:43:00.691Z,3.00
2022-10-01T16:45:32.758Z,2.88
2022-10-01T16:48:00.527Z,2.33
2022-10-01T16:50:27.371Z,2.93
2022-10-01T16:52:55.744Z,4.38
2022-10-01T16:55:26.148Z,4.35
2022-10-01T16:57:57.084Z,3.63
2022-10-01T17:00:26.910Z,4.03
2022-10-01T17:02:55.451Z,5.25
2022-10-01T17:05:27.079Z,5.70
2022-10-01T17:07:55.086Z,4.63
2022-10-01T17:10:23.614Z,6.63
2022-10-01T17:12:50.359Z,6.72
2022-10-01T17:15:20.087Z,7.72
2022-10-01T17:17:48.415Z,7.03
2022-10-01T17:20:15.258Z,5.70
2022-10-01T17:22:44.904Z,6.90
2022-10-01T17:25:18.901Z,6.80
2022-10-01T17:27:46.067Z,5.95
2022-10-01T17:30:13.167Z,7.40
2022-10-01T17:32:40.371Z,11.90
2022-10-01T17:35:08.054Z,6.75
2022-10-01T17:37:34.943Z,5.70
2022-10-01T17:40:02.167Z,7.88
2022-10-01T17:42:29.142Z,9.45
2022-10-01T17:44:56.038Z,7.30
2022-10-01T17:47:22.931Z,11.93
2022-10-01T17:49:49.460Z,8.63
2022-10-01T17:52:16.769Z,8.70
2022-10-01T17:54:43.897Z,8.38
2022-10-01T17:57:13.816Z,7.18
2022-10-01T17:59:40.734Z,8.48
2022-10-01T18:02:23.558Z,8.13
2022-10-01T18:04:54.365Z,7.97
2022-10-01T18:07:21.256Z,8.63
2022-10-01T18:09:47.802Z,8.38
2022-10-01T18:12:14.662Z,10.00
2022-10-01T18:14:43.495Z,7.30
2022-10-01T18:17:10.236Z,7.25
2022-10-01T18:19:53.722Z,8.75
2022-10-01T18:22:29.556Z,9.40
2022-10-01T18:24:56.266Z,8.45
2022-10-01T18:27:22.941Z,12.30
2022-10-01T18:29:49.799Z,10.60
2022-10-01T18:32:23.729Z,8.57
2022-10-01T18:34:59.287Z,7.18
2022-10-01T18:37:57.806Z,10.80
2022-10-01T18:40:29.713Z,8.55
2022-10-01T18:43:02.438Z,10.38
2022-10-01T18:45:46.905Z,11.82
2022-10-01T18:48:25.610Z,12.40
2022-10-01T18:54:31.929Z,9.35
2022-10-01T18:57:28.403Z,8.30
2022-10-01T19:00:17.644Z,7.70
2022-10-01T19:03:02.996Z,7.10
2022-10-01T19:05:47.655Z,6.95
2022-10-01T19:08:24.501Z,6.97
2022-10-01T19:11:17.820Z,7.32
2022-10-01T19:13:44.670Z,8.07
2022-10-01T19:16:44.283Z,8.82
2022-10-01T19:19:40.069Z,7.43
2022-10-01T19:22:47.879Z,6.70
2022-10-01T19:25:32.626Z,8.13
2022-10-01T19:28:29.277Z,7.20
2022-10-01T19:31:08.075Z,9.00
2022-10-01T19:33:42.078Z,10.32
2022-10-01T19:36:17.637Z,9.68
2022-10-01T19:38:47.185Z,10.02
2022-10-01T19:41:18.041Z,7.60
2022-10-01T19:44:24.820Z,7.18
2022-10-01T19:46:56.408Z,8.07
2022-10-01T19:49:33.968Z,7.75
2022-10-01T19:52:04.355Z,9.23
2022-10-01T19:54:34.847Z,8.80
2022-10-01T19:57:17.224Z,9.52
2022-10-01T19:59:47.300Z,9.15
2022-10-01T20:02:21.730Z,5.95
2022-10-01T20:04:58.820Z,7.65
2022-10-01T20:07:56.119Z,10.25
2022-10-01T20:10:45.312Z,11.48
2022-10-01T20:13:14.780Z,11.85
2022-10-01T20:16:38.376Z,8.20
2022-10-01T20:19:23.445Z,8.20
2022-10-01T20:22:06.342Z,11.68
2022-10-01T20:25:05.194Z,8.48
2022-10-01T20:27:49.154Z,9.38
2022-10-01T20:30:21.058Z,10.25
2022-10-01T20:33:49.553Z,11.60
2022-10-01T20:36:23.577Z,9.88
2022-10-01T20:38:57.306Z,9.95
2022-10-01T20:41:29.725Z,10.25
2022-10-01T20:44:00.060Z,10.23
2022-10-01T20:46:33.981Z,11.90
2022-10-01T20:49:05.409Z,14.10
2022-10-01T20:51:43.651Z,9.68
2022-10-01T20:54:15.610Z,13.13
2022-10-01T20:56:47.653Z,11.27
2022-10-01T20:59:24.040Z,12.65
2022-10-01T21:02:02.507Z,14.50
2022-10-01T21:04:43.407Z,16.55
2022-10-01T21:07:36.717Z,13.30
2022-10-01T21:10:21.279Z,15.40
2022-10-01T21:12:59.890Z,12.68
2022-10-01T21:15:43.705Z,13.40
2022-10-01T21:18:33.599Z,11.80
2022-10-01T21:21:32.731Z,15.88
2022-10-01T21:24:06.479Z,14.85
2022-10-01T21:26:54.393Z,15.40
2022-10-01T21:29:39.824Z,12.18
2022-10-01T21:32:06.664Z,11.38
2022-10-01T21:34:50.253Z,14.38
2022-10-01T21:37:45.857Z,14.07
2022-10-01T21:40:43.194Z,16.02
2022-10-01T21:43:47.828Z,15.55
2022-10-01T21:46:41.121Z,19.30
2022-10-01T21:49:13.594Z,14.60
2022-10-01T21:51:55.188Z,15.27
2022-10-01T21:54:40.729Z,13.40
2022-10-01T21:57:10.571Z,16.35
2022-10-01T21:59:46.068Z,12.73
2022-10-01T22:02:48.944Z,10.18
2022-10-01T22:05:37.946Z,12.55
2022-10-01T22:08:16.529Z,11.68
2022-10-01T22:10:46.941Z,11.85
2022-10-01T22:13:23.494Z,12.50
2022-10-01T22:15:54.284Z,11.68
2022-10-01T22:18:36.833Z,9.48
2022-10-01T22:21:10.745Z,12.55
2022-10-01T22:23:41.943Z,8.40
2022-10-01T22:26:16.493Z,9.20
2022-10-01T22:28:47.999Z,7.30
2022-10-01T22:31:25.977Z,10.18
2022-10-01T22:33:57.429Z,7.78
2022-10-01T22:36:44.364Z,8.80
2022-10-01T22:39:17.588Z,8.10
2022-10-01T22:41:56.463Z,7.07
2022-10-01T22:44:23.591Z,6.20
2022-10-01T22:46:55.998Z,7.30
2022-10-01T22:55:19.536Z,4.90
2022-10-01T22:57:56.166Z,5.65
2022-10-01T23:00:23.096Z,4.10
2022-10-01T23:03:06.964Z,5.22
2022-10-01T23:05:52.501Z,6.65
2022-10-01T23:08:43.460Z,4.97
2022-10-01T23:11:25.117Z,5.78
2022-10-01T23:14:22.696Z,8.15
2022-10-01T23:17:04.757Z,3.40
2022-10-01T23:19:41.691Z,5.43
2022-10-01T23:22:11.322Z,13.43
2022-10-01T23:25:15.996Z,7.45
2022-10-01T23:28:13.805Z,10.82
2022-10-01T23:31:19.488Z,40.35
2022-10-01T23:33:53.982Z,6.03
2022-10-01T23:37:21.589Z,6.70
2022-10-01T23:40:04.412Z,6.43
2022-10-01T23:42:49.500Z,4.07
2022-10-01T23:45:28.189Z,7.35
2022-10-01T23:50:58.925Z,47.19
2022-10-01T23:53:32.786Z,7.97
2022-10-01T23:56:23.532Z,28.42
2022-10-01T23:59:03.184Z,4.13
